Time;durP1;ratioP1;P1;durP2;ratioP2;P2;SDS_P1;SDS_P2;PMS_P1;PMS_P2;Temp;Humidity;BMP_temperature;BMP_pressure;BME280_temperature;BME280_humidity;BME280_pressure;Samples;Min_cycle;Max_cycle;Signal;HPM_P1;HPM_P2
2023/07/22 00:00:09;;;;;;;11.20;10.13;;;;;;;25.19;100.00;-18418.41;5070765;28;20191;-64
2023/07/22 00:02:35;;;;;;;16.95;9.90;;;;;;;25.27;100.00;-18420.19;5072573;28;20501;-63
2023/07/22 00:05:02;;;;;;;12.45;9.75;;;;;;;25.29;100.00;-18420.78;5074317;28;20203;-63
2023/07/22 00:07:31;;;;;;;10.88;10.20;;;;;;;25.34;100.00;-18421.97;5074899;28;20211;-64
2023/07/22 00:09:58;;;;;;;10.57;9.77;;;;;;;25.36;100.00;-18422.31;5074224;28;20189;-63
2023/07/22 00:12:25;;;;;;;11.05;10.10;;;;;;;25.35;100.00;-18422.19;5074255;28;20217;-63
2023/07/22 00:14:53;;;;;;;10.10;9.30;;;;;;;25.42;100.00;-18423.75;5074972;28;20630;-64
2023/07/22 00:17:20;;;;;;;11.35;10.30;;;;;;;25.38;100.00;-18422.78;5056799;28;20547;-63
2023/07/22 00:19:48;;;;;;;11.15;10.20;;;;;;;25.31;100.00;-18421.25;5074351;28;20208;-63
2023/07/22 00:22:15;;;;;;;10.70;9.80;;;;;;;25.28;100.00;-18420.44;5074343;28;20279;-63
2023/07/22 00:24:43;;;;;;;10.13;9.43;;;;;;;25.22;100.00;-18419.00;5074008;28;20192;-63
2023/07/22 00:27:10;;;;;;;11.02;10.02;;;;;;;25.20;100.00;-18418.53;5073976;28;20189;-63
2023/07/22 00:29:37;;;;;;;16.65;10.02;;;;;;;25.25;100.00;-18419.72;5073928;28;20180;-63
2023/07/22 00:32:07;;;;;;;10.77;10.00;;;;;;;25.16;100.00;-18417.72;5074110;28;20188;-63
2023/07/22 00:34:33;;;;;;;15.35;10.10;;;;;;;25.08;100.00;-18415.69;5074120;28;20619;-64
2023/07/22 00:37:00;;;;;;;13.82;11.90;;;;;;;25.11;100.00;-18416.53;5074144;28;20559;-63
2023/07/22 00:39:27;;;;;;;20.75;11.38;;;;;;;25.07;100.00;-18415.47;5073696;28;20200;-63
2023/07/22 00:41:55;;;;;;;14.88;11.05;;;;;;;25.12;100.00;-18416.66;5073612;28;20189;-63
2023/07/22 00:44:22;;;;;;;13.00;11.70;;;;;;;25.15;100.00;-18417.34;5073652;28;20702;-63
2023/07/22 00:46:51;;;;;;;18.77;11.38;;;;;;;24.98;100.00;-18413.56;5073723;28;20184;-64
2023/07/22 00:49:18;;;;;;;13.18;11.02;;;;;;;25.12;100.00;-18416.66;5074073;28;20212;-62
2023/07/22 00:51:45;;;;;;;11.52;10.57;;;;;;;25.15;100.00;-18417.34;5073565;28;20642;-63
2023/07/22 00:54:12;;;;;;;16.85;11.95;;;;;;;24.97;100.00;-18413.31;5073439;28;20200;-64
2023/07/22 00:56:41;;;;;;;14.38;11.93;;;;;;;25.07;100.00;-18415.47;5073432;28;20189;-63
2023/07/22 00:59:09;;;;;;;17.70;11.20;;;;;;;25.11;100.00;-18416.53;5074318;28;20639;-63
2023/07/22 01:01:36;;;;;;;12.32;11.10;;;;;;;25.08;100.00;-18415.69;5073191;28;20184;-62
2023/07/22 01:04:04;;;;;;;12.13;11.32;;;;;;;25.05;100.00;-18415.09;5073497;28;20192;-63
2023/07/22 01:06:31;;;;;;;12.25;10.68;;;;;;;24.90;100.00;-18411.66;5073675;28;20605;-63
2023/07/22 01:08:58;;;;;;;10.88;9.93;;;;;;;24.93;100.00;-18412.38;5073067;28;20188;-62
2023/07/22 01:11:26;;;;;;;12.18;11.05;;;;;;;25.18;100.00;-18418.06;5073858;28;20188;-64
2023/07/22 01:13:57;;;;;;;14.23;11.20;;;;;;;25.26;100.00;-18419.94;5072810;28;20199;-62
2023/07/22 01:16:27;;;;;;;14.60;11.35;;;;;;;25.32;100.00;-18421.50;5073018;28;20228;-63
2023/07/22 01:18:55;;;;;;;17.80;10.65;;;;;;;25.35;100.00;-18422.09;5073174;28;20205;-64
2023/07/22 01:21:24;;;;;;;13.55;11.88;;;;;;;25.37;100.00;-18422.69;5073297;28;20191;-62
2023/07/22 01:23:53;;;;;;;17.65;11.35;;;;;;;25.30;100.00;-18420.91;5073201;28;20213;-63
2023/07/22 01:26:20;;;;;;;14.55;10.75;;;;;;;25.15;100.00;-18417.34;5072913;28;20208;-63
2023/07/22 01:28:47;;;;;;;15.73;11.30;;;;;;;25.26;100.00;-18419.94;5072713;28;20187;-63
2023/07/22 01:31:14;;;;;;;13.88;10.90;;;;;;;25.07;100.00;-18415.47;5072969;28;20185;-62
2023/07/22 01:33:40;;;;;;;11.07;10.07;;;;;;;25.22;100.00;-18419.00;5072979;28;20190;-63
2023/07/22 01:36:07;;;;;;;12.85;11.55;;;;;;;25.26;100.00;-18420.06;5072826;28;20212;-63
2023/07/22 01:38:35;;;;;;;16.63;11.57;;;;;;;25.18;100.00;-18418.06;5072456;28;20207;-63
2023/07/22 01:41:04;;;;;;;16.75;11.40;;;;;;;25.27;100.00;-18420.31;5072840;28;20177;-62
2023/07/22 01:43:30;;;;;;;12.98;10.90;;;;;;;25.25;100.00;-18419.84;5072452;28;20196;-63
2023/07/22 01:45:57;;;;;;;18.83;11.68;;;;;;;25.21;100.00;-18418.88;5072396;28;20193;-63
2023/07/22 01:48:24;;;;;;;12.30;11.05;;;;;;;25.22;100.00;-18419.00;5072677;28;20298;-63
2023/07/22 01:50:51;;;;;;;12.15;11.13;;;;;;;25.18;100.00;-18418.06;5072428;28;20244;-63
2023/07/22 01:53:18;;;;;;;12.35;11.07;;;;;;;25.16;100.00;-18417.59;5072289;28;20243;-62
2023/07/22 01:55:45;;;;;;;17.08;11.90;;;;;;;24.97;100.00;-18413.31;5072149;28;20281;-63
2023/07/22 01:58:13;;;;;;;14.95;11.32;;;;;;;25.26;100.00;-18419.94;5072488;28;20239;-63
2023/07/22 02:00:40;;;;;;;11.98;10.95;;;;;;;25.07;100.00;-18415.47;5072124;28;20176;-64
2023/07/22 02:03:07;;;;;;;13.90;11.48;;;;;;;25.08;100.00;-18415.81;5073095;28;20635;-63
2023/07/22 02:05:34;;;;;;;14.10;11.40;;;;;;;25.17;100.00;-18417.94;5072541;28;20635;-64
2023/07/22 02:08:01;;;;;;;13.80;11.57;;;;;;;25.17;100.00;-18417.94;5071912;28;20607;-64
2023/07/22 02:10:28;;;;;;;12.38;11.20;;;;;;;25.05;100.00;-18414.97;5072231;28;20580;-62
2023/07/22 02:12:55;;;;;;;11.90;11.10;;;;;;;25.13;100.00;-18416.88;5072156;28;20192;-63
2023/07/22 02:15:24;;;;;;;12.35;11.15;;;;;;;25.16;100.00;-18417.59;5072233;28;20623;-63
2023/07/22 02:17:51;;;;;;;12.48;11.23;;;;;;;25.21;100.00;-18418.88;5071883;28;20192;-63
2023/07/22 02:20:18;;;;;;;13.32;11.23;;;;;;;25.25;100.00;-18419.72;5071725;28;20213;-63
2023/07/22 02:22:45;;;;;;;11.50;10.40;;;;;;;25.28;100.00;-18420.53;5071813;28;20184;-64
2023/07/22 02:25:12;;;;;;;11.45;10.63;;;;;;;25.26;100.00;-18419.94;5071175;28;20274;-64
2023/07/22 02:27:40;;;;;;;12.05;10.80;;;;;;;25.32;100.00;-18421.38;5072522;28;20184;-63
2023/07/22 02:30:10;;;;;;;12.15;11.20;;;;;;;25.36;100.00;-18422.31;5071620;28;20295;-63
2023/07/22 02:32:40;;;;;;;12.70;11.45;;;;;;;25.26;100.00;-18419.94;5071601;28;20188;-62
2023/07/22 02:35:08;;;;;;;10.98;10.20;;;;;;;25.36;100.00;-18422.31;5071891;28;20177;-62
2023/07/22 02:37:35;;;;;;;10.70;10.00;;;;;;;25.28;100.00;-18420.44;5071772;28;20196;-62
2023/07/22 02:40:07;;;;;;;11.63;10.27;;;;;;;25.18;100.00;-18418.06;5071514;28;20204;-62
2023/07/22 02:42:34;;;;;;;11.45;10.45;;;;;;;25.24;100.00;-18419.59;5071529;28;20181;-63
2023/07/22 02:45:01;;;;;;;11.60;10.93;;;;;;;25.16;100.00;-18417.59;5071470;28;20188;-63
2023/07/22 02:47:28;;;;;;;12.35;11.10;;;;;;;25.22;100.00;-18419.13;5071796;28;20189;-63
2023/07/22 02:49:56;;;;;;;11.07;10.43;;;;;;;25.06;100.00;-18415.22;5071685;28;20195;-63
2023/07/22 02:52:23;;;;;;;11.80;10.77;;;;;;;25.10;100.00;-18416.28;5071381;28;20236;-63
2023/07/22 02:55:06;;;;;;;12.10;10.93;;;;;;;25.22;100.00;-18419.00;5072171;28;20196;-63
2023/07/22 02:57:33;;;;;;;10.50;9.90;;;;;;;25.23;100.00;-18419.38;5071413;28;20330;-63
2023/07/22 03:00:00;;;;;;;10.10;9.32;;;;;;;25.26;100.00;-18419.94;5071603;28;20220;-63
2023/07/22 03:02:27;;;;;;;10.60;10.00;;;;;;;25.27;100.00;-18420.19;5071631;28;20563;-63
2023/07/22 03:04:57;;;;;;;10.35;9.75;;;;;;;25.17;100.00;-18417.81;5072047;28;20185;-63
2023/07/22 03:07:27;;;;;;;10.57;9.73;;;;;;;25.27;100.00;-18420.31;5071607;28;20200;-63
2023/07/22 03:09:54;;;;;;;9.60;8.88;;;;;;;25.15;100.00;-18417.34;5071571;28;20615;-63
2023/07/22 03:12:20;;;;;;;9.50;9.00;;;;;;;25.14;100.00;-18417.22;5071271;28;20276;-64
2023/07/22 03:14:48;;;;;;;9.60;9.00;;;;;;;25.25;100.00;-18419.72;5071523;28;20628;-63
2023/07/22 03:17:16;;;;;;;9.85;9.13;;;;;;;25.24;100.00;-18419.47;5071525;28;20721;-63
2023/07/22 03:19:43;;;;;;;9.60;9.10;;;;;;;25.38;100.00;-18422.91;5071434;28;20324;-63
2023/07/22 03:22:14;;;;;;;9.60;8.95;;;;;;;25.43;100.00;-18423.97;5071483;28;20203;-63
2023/07/22 03:24:41;;;;;;;9.45;8.63;;;;;;;25.55;100.00;-18426.81;5071069;28;20188;-63
2023/07/22 03:27:08;;;;;;;9.07;8.50;;;;;;;25.66;100.00;-18429.31;5071077;28;20192;-64
2023/07/22 03:29:35;;;;;;;9.13;8.50;;;;;;;25.71;100.00;-18430.47;5071338;28;20188;-63
2023/07/22 03:32:02;;;;;;;10.15;9.18;;;;;;;25.80;100.00;-18432.72;5071360;28;20184;-64
2023/07/22 03:34:29;;;;;;;10.02;9.40;;;;;;;25.95;100.00;-18436.03;5071038;28;20181;-63
2023/07/22 03:36:56;;;;;;;11.65;9.55;;;;;;;26.01;100.00;-18437.56;5073143;28;20196;-63
2023/07/22 03:39:24;;;;;;;9.52;8.88;;;;;;;25.92;100.00;-18435.44;5074771;28;20204;-63
2023/07/22 03:41:51;;;;;;;11.57;9.77;;;;;;;25.85;100.00;-18433.91;5074791;28;20200;-64
2023/07/22 03:44:25;;;;;;;9.50;8.57;;;;;;;25.95;100.00;-18436.03;5074750;28;20200;-66
2023/07/22 03:46:52;;;;;;;8.82;8.13;;;;;;;25.78;100.00;-18432.25;5074692;28;20185;-63
2023/07/22 03:49:20;;;;;;;9.07;8.25;;;;;;;26.03;100.00;-18438.03;5075061;28;20604;-63
2023/07/22 03:51:47;;;;;;;9.68;9.05;;;;;;;26.27;100.00;-18443.59;5074512;28;20332;-64
2023/07/22 03:54:14;;;;;;;9.10;8.50;;;;;;;26.33;100.00;-18445.03;5074885;28;20267;-63
2023/07/22 03:56:42;;;;;;;8.77;7.93;;;;;;;26.11;100.00;-18439.94;5074575;28;20239;-62
2023/07/22 03:59:09;;;;;;;9.27;8.20;;;;;;;26.50;100.00;-18449.03;5074752;28;20690;-62
2023/07/22 04:01:36;;;;;;;9.07;8.52;;;;;;;26.54;100.00;-18449.97;5074767;28;20196;-63
2023/07/22 04:04:03;;;;;;;9.45;8.07;;;;;;;26.86;100.00;-18457.41;5074995;28;20181;-63
2023/07/22 04:06:29;;;;;;;8.52;8.02;;;;;;;27.06;100.00;-18462.03;5074954;28;20639;-63
2023/07/22 04:08:56;;;;;;;9.43;8.35;;;;;;;27.21;100.00;-18465.69;5074251;28;20260;-63
2023/07/22 04:11:23;;;;;;;8.43;7.70;;;;;;;26.77;100.00;-18455.41;5075095;28;20211;-63
2023/07/22 04:13:51;;;;;;;8.90;8.30;;;;;;;26.88;100.00;-18457.78;5074524;28;20638;-63
2023/07/22 04:16:19;;;;;;;8.60;7.97;;;;;;;27.03;100.00;-18461.44;5074144;28;20189;-63
2023/07/22 04:18:45;;;;;;;8.52;7.88;;;;;;;27.24;100.00;-18466.25;5074731;28;20185;-63
2023/07/22 04:21:12;;;;;;;8.23;7.57;;;;;;;27.33;100.00;-17160.91;5074575;28;20204;-63
2023/07/22 04:23:39;;;;;;;8.90;6.97;;;;;;;27.47;100.00;-16837.38;5074347;28;20185;-62
2023/07/22 04:26:07;;;;;;;7.43;6.93;;;;;;;27.56;100.00;-10300.41;5073924;28;20184;-63
2023/07/22 04:28:34;;;;;;;7.18;6.88;;;;;;;27.86;100.00;-6044.28;5073895;28;20239;-63
2023/07/22 04:31:02;;;;;;;7.47;6.95;;;;;;;27.88;100.00;-5388.59;5073942;28;20188;-63
2023/07/22 04:33:29;;;;;;;7.28;6.95;;;;;;;28.09;100.00;-136.38;5073876;28;20192;-63
2023/07/22 04:35:59;;;;;;;7.80;7.30;;;;;;;28.09;100.00;1835.59;5074097;28;20685;-63
2023/07/22 04:38:26;;;;;;;7.03;6.72;;;;;;;28.12;100.00;5454.44;5074062;28;20203;-62
2023/07/22 04:40:52;;;;;;;6.97;6.43;;;;;;;28.29;100.00;13697.78;5073667;28;20201;-62
2023/07/22 04:43:19;;;;;;;6.85;6.45;;;;;;;28.41;100.00;21633.34;5074049;28;20212;-63
2023/07/22 04:45:47;;;;;;;6.63;6.07;;;;;;;28.57;100.00;30256.69;5073659;28;20188;-63
2023/07/22 04:48:17;;;;;;;7.75;5.57;;;;;;;28.47;100.00;33902.97;5072985;28;20314;-62
2023/07/22 04:50:44;;;;;;;6.38;5.97;;;;;;;28.46;100.00;35563.22;5073446;28;20235;-63
2023/07/22 04:53:12;;;;;;;6.32;6.03;;;;;;;28.75;100.00;54920.16;5074272;28;20540;-63
2023/07/22 04:55:40;;;;;;;6.20;5.70;;;;;;;28.97;100.00;56613.34;5073838;28;20651;-63
2023/07/22 04:58:10;;;;;;;6.20;5.93;;;;;;;29.14;100.00;86891.66;5073389;28;20188;-63
2023/07/22 05:00:37;;;;;;;5.78;5.47;;;;;;;29.23;100.00;95359.66;5073267;28;20225;-62
2023/07/22 05:03:04;;;;;;;6.53;5.93;;;;;;;29.44;100.00;104550.88;5073385;28;20230;-63
2023/07/22 05:05:33;;;;;;;5.97;5.68;;;;;;;29.40;100.00;139354.25;5073649;28;20547;-63
2023/07/22 05:08:00;;;;;;;5.97;5.68;;;;;;;29.39;100.00;134211.25;5073572;28;20184;-63
2023/07/22 05:10:28;;;;;;;6.22;5.93;;;;;;;29.28;100.00;153057.75;5073078;28;20177;-62
2023/07/22 05:12:56;;;;;;;5.47;5.20;;;;;;;29.16;100.00;129028.34;5073128;28;20188;-62
2023/07/22 05:15:23;;;;;;;6.45;6.00;;;;;;;29.47;100.00;127385.66;5073412;28;20610;-63
2023/07/22 05:17:53;;;;;;;6.05;5.65;;;;;;;29.42;100.00;129084.50;5072997;28;20191;-62
2023/07/22 05:20:20;;;;;;;6.30;5.85;;;;;;;29.42;100.00;132505.97;5072783;28;20204;-63
2023/07/22 05:22:49;;;;;;;5.40;5.03;;;;;;;29.73;100.00;153522.88;5073046;28;20572;-63
2023/07/22 05:25:16;;;;;;;5.72;5.43;;;;;;;29.72;100.00;153520.28;5073170;28;20247;-63
2023/07/22 05:27:43;;;;;;;6.07;5.78;;;;;;;29.78;100.00;153535.69;5073056;28;20184;-62
2023/07/22 05:30:10;;;;;;;6.22;5.38;;;;;;;29.86;100.00;153556.19;5072821;28;20184;-63
2023/07/22 05:32:37;;;;;;;7.00;6.13;;;;;;;29.77;100.00;153533.13;5073002;28;20189;-62
2023/07/22 05:35:05;;;;;;;6.88;6.30;;;;;;;29.70;100.00;153515.19;5072905;28;20192;-64
2023/07/22 05:37:32;;;;;;;8.88;6.43;;;;;;;29.77;100.00;153533.13;5072937;28;20192;-62
2023/07/22 05:40:00;;;;;;;8.48;5.60;;;;;;;29.91;100.00;153569.06;5072872;28;20204;-63
2023/07/22 05:42:27;;;;;;;5.85;5.55;;;;;;;29.85;100.00;153554.91;5073300;28;20185;-62
2023/07/22 05:44:55;;;;;;;5.80;5.30;;;;;;;29.72;100.00;153520.28;5072364;28;20555;-63
2023/07/22 05:47:23;;;;;;;5.63;5.32;;;;;;;29.69;100.00;153512.63;5072814;28;20621;-63
2023/07/22 05:49:50;;;;;;;5.80;5.50;;;;;;;29.72;100.00;153521.59;5073097;28;20191;-63
2023/07/22 05:52:16;;;;;;;5.60;5.40;;;;;;;29.95;100.00;153579.31;5072356;28;20239;-63
2023/07/22 05:54:43;;;;;;;10.48;5.90;;;;;;;30.24;100.00;153652.34;5073077;28;20181;-63
2023/07/22 05:57:12;;;;;;;5.80;5.55;;;;;;;30.25;100.00;153656.22;5054538;28;20203;-62
2023/07/22 05:59:39;;;;;;;5.25;5.05;;;;;;;30.26;100.00;153657.44;5071146;28;20192;-63
2023/07/22 06:02:07;;;;;;;5.63;5.32;;;;;;;30.50;100.00;153717.78;5072244;28;20288;-61
2023/07/22 06:04:34;;;;;;;6.15;5.57;;;;;;;30.65;100.00;153756.22;5072357;28;20635;-63
2023/07/22 06:07:01;;;;;;;5.97;5.50;;;;;;;30.63;100.00;153751.09;5054644;28;20671;-63
2023/07/22 06:09:27;;;;;;;6.75;5.82;;;;;;;30.67;100.00;153761.34;5072246;28;20710;-61
2023/07/22 06:11:54;;;;;;;4.72;4.53;;;;;;;31.10;100.00;153871.69;5072124;28;20180;-64
2023/07/22 06:14:23;;;;;;;5.85;5.55;;;;;;;31.60;100.00;153997.41;5072099;28;20283;-63
2023/07/22 06:16:50;;;;;;;5.95;5.50;;;;;;;31.45;100.00;153958.84;5072268;28;20185;-63
2023/07/22 06:19:17;;;;;;;5.82;5.35;;;;;;;31.76;100.00;154038.44;5072363;28;20204;-64
2023/07/22 06:21:44;;;;;;;5.25;5.05;;;;;;;32.22;100.00;154153.94;5072180;28;20713;-63
2023/07/22 06:24:11;;;;;;;6.43;5.47;;;;;;;32.59;100.00;154248.94;5071959;28;20621;-63
2023/07/22 06:26:38;;;;;;;5.35;5.05;;;;;;;32.73;100.00;154284.88;5071724;28;20200;-61
2023/07/22 06:29:04;;;;;;;6.32;5.10;;;;;;;32.91;100.00;154331.09;5072089;28;20655;-63
2023/07/22 06:31:33;;;;;;;5.53;5.00;;;;;;;33.15;100.00;154390.19;5071967;28;20199;-62
2023/07/22 06:34:00;;;;;;;5.63;5.32;;;;;;;33.46;100.00;154469.81;5072247;28;20188;-63
2023/07/22 06:36:28;;;;;;;7.00;4.95;;;;;;;33.30;100.00;154430.00;5072357;28;20181;-62
2023/07/22 06:38:56;;;;;;;5.65;4.47;;;;;;;33.35;100.00;154441.56;5071666;28;20690;-63
2023/07/22 06:41:24;;;;;;;4.97;4.68;;;;;;;33.51;100.00;154482.66;5071856;28;20210;-62
2023/07/22 06:43:51;;;;;;;5.13;4.78;;;;;;;34.00;100.00;154605.97;5071977;28;20624;-62
2023/07/22 06:46:19;;;;;;;11.25;4.82;;;;;;;34.24;100.00;154667.69;5071648;28;20185;-64
2023/07/22 06:48:48;;;;;;;5.68;5.13;;;;;;;34.67;100.00;154778.19;5071895;28;20588;-62
2023/07/22 06:51:15;;;;;;;7.35;5.43;;;;;;;34.95;100.00;154847.63;5071476;28;20239;-63
2023/07/22 06:53:42;;;;;;;4.63;4.32;;;;;;;35.15;100.00;154900.34;5071861;28;20635;-63
2023/07/22 06:56:08;;;;;;;5.00;4.50;;;;;;;34.93;100.00;154842.44;5071455;28;20185;-63
2023/07/22 06:58:35;;;;;;;5.47;5.18;;;;;;;34.69;100.00;154782.06;5071784;28;20277;-63
2023/07/22 07:01:02;;;;;;;4.90;4.45;;;;;;;34.19;100.00;154656.16;5072052;28;20571;-62
2023/07/22 07:03:29;;;;;;;5.40;4.93;;;;;;;33.76;100.00;154545.63;5071743;28;20566;-63
2023/07/22 07:05:58;;;;;;;4.85;4.47;;;;;;;33.80;100.00;154557.19;5071617;28;20653;-62
2023/07/22 07:08:25;;;;;;;4.97;4.57;;;;;;;34.00;100.00;154605.97;5071331;28;20189;-63
2023/07/22 07:10:52;;;;;;;8.18;5.00;;;;;;;34.17;100.00;154650.97;5072226;28;20618;-63
2023/07/22 07:13:19;;;;;;;4.60;4.18;;;;;;;34.70;100.00;154785.94;5075397;28;20196;-63
2023/07/22 07:15:49;;;;;;;5.10;4.75;;;;;;;34.63;100.00;154767.88;5075355;28;20205;-63
2023/07/22 07:18:17;;;;;;;6.50;3.97;;;;;;;34.97;100.00;154852.78;5075214;28;20205;-63
2023/07/22 07:20:44;;;;;;;4.00;3.80;;;;;;;35.09;100.00;154884.91;5075207;28;20304;-63
2023/07/22 07:23:16;;;;;;;4.07;3.80;;;;;;;34.77;99.87;154802.63;5057769;28;20554;-62
2023/07/22 07:25:47;;;;;;;4.43;4.07;;;;;;;34.50;100.00;154734.47;5075878;28;20554;-62
2023/07/22 07:28:14;;;;;;;4.30;4.05;;;;;;;34.37;100.00;154702.34;5075726;28;20189;-63
2023/07/22 07:30:41;;;;;;;4.78;4.55;;;;;;;34.38;100.00;154703.63;5075141;28;20191;-63
2023/07/22 07:33:08;;;;;;;4.63;3.85;;;;;;;34.28;100.00;154679.28;5075156;28;20185;-64
2023/07/22 07:35:35;;;;;;;4.60;4.30;;;;;;;34.11;100.00;154634.25;5075201;28;20223;-64
2023/07/22 07:38:03;;;;;;;4.60;4.30;;;;;;;34.40;100.00;154710.09;5074931;28;20195;-63
2023/07/22 07:40:31;;;;;;;4.45;4.15;;;;;;;34.39;100.00;154706.22;5075620;28;20208;-63
2023/07/22 07:42:58;;;;;;;4.50;4.20;;;;;;;34.52;100.00;154739.63;5075155;28;20192;-62
2023/07/22 07:45:25;;;;;;;5.72;4.38;;;;;;;34.45;100.00;154721.66;5074864;28;20188;-62
2023/07/22 07:47:52;;;;;;;4.57;4.18;;;;;;;34.54;100.00;154744.78;5074714;28;20188;-62
2023/07/22 07:50:19;;;;;;;4.03;3.90;;;;;;;34.49;100.00;154730.66;5074934;28;20272;-63
2023/07/22 07:52:46;;;;;;;5.70;4.38;;;;;;;34.56;100.00;154749.91;5074578;28;20235;-63
2023/07/22 07:55:13;;;;;;;8.23;4.20;;;;;;;34.55;100.00;154746.03;5074976;28;20188;-63
2023/07/22 07:57:41;;;;;;;4.60;4.40;;;;;;;34.45;100.00;154721.66;5075003;28;20188;-62
2023/07/22 08:00:09;;;;;;;4.68;4.38;;;;;;;34.35;100.00;154697.25;5074422;28;20189;-62
2023/07/22 08:02:36;;;;;;;5.03;4.57;;;;;;;34.32;100.00;154688.25;5074318;28;20228;-61
2023/07/22 08:05:03;;;;;;;4.93;4.65;;;;;;;34.55;100.00;154747.31;5074752;28;20188;-62
2023/07/22 08:07:30;;;;;;;4.78;4.47;;;;;;;34.91;100.00;154838.63;5074832;28;20196;-63
2023/07/22 08:09:58;;;;;;;4.43;4.05;;;;;;;35.45;100.00;154974.91;5074588;28;20180;-62
2023/07/22 08:12:25;;;;;;;4.60;4.40;;;;;;;35.98;99.03;155109.97;5074343;28;20280;-63
2023/07/22 08:14:54;;;;;;;6.97;4.93;;;;;;;36.14;96.43;155151.16;5074221;28;20180;-63
2023/07/22 08:17:21;;;;;;;8.32;4.35;;;;;;;36.67;92.44;155286.22;5074104;28;20196;-62
2023/07/22 08:19:49;;;;;;;5.70;4.60;;;;;;;36.88;89.90;155338.94;5056269;28;20192;-63
2023/07/22 08:22:15;;;;;;;4.53;4.18;;;;;;;36.93;88.47;155353.09;5073766;28;20295;-62
2023/07/22 08:24:43;;;;;;;6.20;4.50;;;;;;;36.46;93.22;155233.44;5073956;28;20631;-63
2023/07/22 08:27:09;;;;;;;4.20;4.00;;;;;;;36.43;92.92;155224.44;5074030;28;20189;-62
2023/07/22 08:29:37;;;;;;;4.93;4.38;;;;;;;36.45;95.23;155230.84;5074003;28;20223;-63
2023/07/22 08:32:06;;;;;;;4.72;4.43;;;;;;;36.26;97.11;155182.00;5074225;28;20185;-62
2023/07/22 08:34:33;;;;;;;4.78;4.47;;;;;;;35.67;98.30;155032.81;5073945;28;20185;-62
2023/07/22 08:36:59;;;;;;;4.45;4.25;;;;;;;35.73;98.67;155046.97;5073856;28;20181;-62
2023/07/22 08:39:26;;;;;;;4.97;4.55;;;;;;;35.82;99.19;155070.06;5074043;28;20211;-62
2023/07/22 08:41:55;;;;;;;4.90;4.57;;;;;;;35.97;97.16;155108.66;5073662;28;20205;-63
2023/07/22 08:44:23;;;;;;;4.75;4.53;;;;;;;35.73;95.23;155048.22;5073576;28;20185;-63
2023/07/22 08:46:53;;;;;;;5.40;4.55;;;;;;;35.73;95.05;155048.22;5073689;28;20181;-64
2023/07/22 08:49:21;;;;;;;6.47;5.00;;;;;;;36.08;93.04;155136.94;5073574;28;20220;-62
2023/07/22 08:51:49;;;;;;;5.40;4.93;;;;;;;36.34;93.13;155202.56;5073585;28;20315;-63
2023/07/22 08:54:16;;;;;;;5.60;5.20;;;;;;;36.63;83.64;155277.22;5073621;28;20188;-62
2023/07/22 08:56:44;;;;;;;4.53;4.25;;;;;;;36.34;97.03;155202.56;5073824;28;20184;-62
2023/07/22 08:59:12;;;;;;;5.85;5.43;;;;;;;36.33;100.00;155198.69;5073679;28;20287;-63
2023/07/22 09:01:39;;;;;;;5.82;5.40;;;;;;;35.47;100.00;154981.34;5073616;28;20611;-62
2023/07/22 09:04:06;;;;;;;5.47;5.05;;;;;;;33.96;100.00;154596.97;5073303;28;20702;-62
2023/07/22 09:06:35;;;;;;;6.55;5.97;;;;;;;33.84;100.00;154566.16;5073331;28;20196;-63
2023/07/22 09:09:04;;;;;;;6.05;5.53;;;;;;;34.03;100.00;154615.00;5073529;28;20191;-63
2023/07/22 09:11:31;;;;;;;6.35;5.85;;;;;;;34.23;100.00;154665.13;5073512;28;20697;-62
2023/07/22 09:13:59;;;;;;;6.03;5.47;;;;;;;34.13;100.00;154640.66;5073038;28;20185;-63
2023/07/22 09:16:28;;;;;;;5.95;5.55;;;;;;;33.81;100.00;154559.75;5073178;28;20223;-62
2023/07/22 09:18:56;;;;;;;5.97;5.68;;;;;;;33.02;100.00;154359.34;5073046;28;20189;-62
2023/07/22 09:21:23;;;;;;;5.70;5.30;;;;;;;33.00;100.00;154352.94;5072933;28;20667;-63
2023/07/22 09:23:51;;;;;;;5.88;5.57;;;;;;;32.50;100.00;154225.81;5072878;28;20188;-61
2023/07/22 09:26:18;;;;;;;5.72;5.35;;;;;;;32.44;100.00;154211.69;5072885;28;20195;-62
2023/07/22 09:28:50;;;;;;;6.07;5.78;;;;;;;32.24;100.00;154159.09;5073621;28;20188;-62
2023/07/22 09:31:17;;;;;;;5.53;5.22;;;;;;;32.06;100.00;154115.41;5072714;28;20268;-63
2023/07/22 09:33:44;;;;;;;6.05;5.60;;;;;;;31.73;100.00;154030.75;5072571;28;20212;-63
2023/07/22 09:36:12;;;;;;;5.70;5.38;;;;;;;31.17;100.00;153889.63;5072909;28;20258;-62
2023/07/22 09:38:41;;;;;;;6.13;5.72;;;;;;;31.51;100.00;153974.25;5072902;28;20188;-62
2023/07/22 09:41:10;;;;;;;5.80;5.40;;;;;;;32.12;100.00;154130.84;5072649;28;20278;-63
2023/07/22 09:43:40;;;;;;;5.53;5.22;;;;;;;32.18;100.00;154144.97;5072516;28;20185;-62
2023/07/22 09:46:08;;;;;;;5.72;5.03;;;;;;;32.41;100.00;154204.00;5072529;28;20181;-63
2023/07/22 09:48:45;;;;;;;8.70;5.65;;;;;;;32.25;100.00;154161.66;5072349;28;20213;-63
2023/07/22 09:51:14;;;;;;;5.82;5.47;;;;;;;31.49;100.00;153969.09;5072407;28;20232;-63
2023/07/22 09:53:46;;;;;;;5.60;5.32;;;;;;;31.30;100.00;153921.66;5072520;28;20255;-62
2023/07/22 09:56:14;;;;;;;5.70;5.30;;;;;;;30.94;100.00;153830.56;5072601;28;20627;-63
2023/07/22 09:58:45;;;;;;;5.25;5.05;;;;;;;30.91;100.00;153821.59;5072451;28;20648;-62
2023/07/22 10:01:15;;;;;;;5.32;5.03;;;;;;;30.99;100.00;153843.38;5072393;28;20574;-61
2023/07/22 10:03:46;;;;;;;5.88;5.57;;;;;;;30.96;100.00;153835.72;5072330;28;20189;-61
2023/07/22 10:06:16;;;;;;;6.20;5.65;;;;;;;31.23;100.00;153903.75;5072434;28;20719;-63
2023/07/22 10:08:46;;;;;;;5.93;5.53;;;;;;;30.92;100.00;153824.16;5055009;28;20632;-62
2023/07/22 10:11:15;;;;;;;5.57;5.28;;;;;;;30.89;100.00;153817.78;5072303;28;20260;-62
2023/07/22 10:13:42;;;;;;;11.23;5.53;;;;;;;31.14;100.00;153881.94;5071881;28;20193;-62
2023/07/22 10:16:09;;;;;;;5.82;5.50;;;;;;;31.64;100.00;154008.94;5072119;28;20185;-63
2023/07/22 10:18:37;;;;;;;5.43;4.97;;;;;;;31.71;100.00;154026.88;5071771;28;20301;-62
2023/07/22 10:21:05;;;;;;;5.72;5.43;;;;;;;31.64;100.00;154007.66;5072014;28;20181;-62
2023/07/22 10:23:33;;;;;;;5.88;5.57;;;;;;;31.48;100.00;153966.56;5072074;28;20559;-62
2023/07/22 10:26:00;;;;;;;6.28;5.78;;;;;;;30.94;100.00;153829.28;5072065;28;20181;-63
2023/07/22 10:28:30;;;;;;;6.10;5.70;;;;;;;31.43;100.00;153955.03;5072549;28;20181;-63
2023/07/22 10:30:58;;;;;;;5.80;5.30;;;;;;;31.13;100.00;153879.34;5071973;28;20654;-63
2023/07/22 10:33:25;;;;;;;5.78;5.35;;;;;;;31.36;100.00;153937.03;5071604;28;20234;-63
2023/07/22 10:36:05;;;;;;;6.18;5.90;;;;;;;31.38;100.00;153940.91;5071820;28;20189;-62
2023/07/22 10:38:32;;;;;;;5.95;5.45;;;;;;;31.38;100.00;153942.19;5071509;28;20191;-63
2023/07/22 10:41:00;;;;;;;6.55;6.07;;;;;;;31.16;100.00;153887.03;5071786;28;20196;-63
2023/07/22 10:43:33;;;;;;;5.70;5.45;;;;;;;31.44;100.00;153956.31;5072323;28;20554;-62
2023/07/22 10:46:07;;;;;;;5.38;4.97;;;;;;;31.10;100.00;153871.69;5070976;28;20195;-63
2023/07/22 10:48:37;;;;;;;6.22;5.60;;;;;;;30.92;100.00;153825.47;5071424;28;20189;-63
2023/07/22 10:51:07;;;;;;;6.15;5.22;;;;;;;30.98;100.00;153839.56;5071184;28;20319;-62
2023/07/22 10:53:41;;;;;;;5.55;5.35;;;;;;;31.13;100.00;153879.34;5071665;28;20268;-63
2023/07/22 10:56:16;;;;;;;6.18;5.78;;;;;;;31.01;100.00;153847.31;5071263;28;20181;-63
2023/07/22 10:59:02;;;;;;;5.40;5.07;;;;;;;31.15;100.00;153884.47;5071506;28;20187;-66
2023/07/22 11:01:37;;;;;;;6.43;5.82;;;;;;;31.15;100.00;153883.19;5071379;28;20205;-63
2023/07/22 11:04:10;;;;;;;6.22;5.85;;;;;;;31.09;100.00;153869.09;5071256;28;20195;-62
2023/07/22 11:06:39;;;;;;;6.05;5.75;;;;;;;30.79;100.00;153792.13;5071616;28;20262;-62
2023/07/22 11:09:06;;;;;;;5.88;5.47;;;;;;;30.65;100.00;153756.22;5071228;28;20238;-62
2023/07/22 11:11:38;;;;;;;5.43;5.22;;;;;;;30.57;100.00;153735.69;5071250;28;20183;-63
2023/07/22 11:14:21;;;;;;;5.80;5.50;;;;;;;30.37;100.00;153685.69;5071097;28;20215;-63
2023/07/22 11:16:49;;;;;;;6.43;5.82;;;;;;;30.47;100.00;153711.34;5071482;28;20666;-63